Hovedside
METAR-TAF:

METAR-TAF

Lufthavner :

Touho, Ny-Caledonia

breddegrad: 20-47-25S, lengdegrad: 165-15-34E, høyde over havet: 3 m

METAR: fraværende

Tid: 14:25 (03:25 UTC)

Varsel

Denne rapporten ble laget for 10 timer og 25 minutter siden, klokken 17:00 UTC
Varsel gyldig fra 19. klokken 18 UTC til 20. klokken 18 UTC
Vind 8 kt fra Sør-sørvest
Sikt 10 km eller mer
Få skyer i en høyde av 3000 ft
Blir
fra 19. klokken 22 UTC til 19. klokken 24 UTC
Vind 10 kt fra Øst-sørøst

TAF: NWWU 191700Z 1918/2018 20008KT 9999 FEW030 BECMG 1922/1924 12010KT

Værobservasjoner og værvarsel for over 4000 flyplasser (METAR- og TAF-rapporter).

Tilgjengelige stasjoner er representert av de røde og gule prikkene på kartet.

Hold musepekeren over prikken for å se navnet på stasjonen.

Klikk så for å se værobservasjoner og -varsler.

For å forandre kartet kan du klikke på den grønne knappen med svart kryss for å zoome inn, på den grønne knappen med strek for å zoome ut, eller på de grønne pilene for å se tilstøtende kart.


METAR-TAF: